Terminal Aerodrome Forecast
Issued by NWS Corpus Christi, TX

Home | Current Version | Previous Version | Text Only | Print | Product List | Glossary On
Versions: 1 2 3 4 5 6 7 8 9 10 11 12 13 14 15 16 17 18 19 20
000
FTUS44 KCRP 222341
TAFVCT
TAF
KVCT 222341Z 2300/2324 36006KT 3SM BR OVC003
     FM230200 01006KT 1SM BR OVC004
     FM230400 02005KT 1/2SM FG OVC003
     FM231500 05006KT 3SM BR OVC005
     FM231900 14012KT 6SM BR OVC015=

USA.gov is the U.S. government's official web portal to all federal, state and local government web resources and services.